sensor_id;sensor_type;location;lat;lon;timestamp;P1;durP1;ratioP1;P2;durP2;ratioP2
76552;SDS011;65395;53.168;18.156;2022-12-18T00:01:17;36.90;;;12.30;;
76552;SDS011;65395;53.168;18.156;2022-12-18T00:03:45;34.60;;;12.10;;
76552;SDS011;65395;53.168;18.156;2022-12-18T00:06:14;34.50;;;12.30;;
76552;SDS011;65395;53.168;18.156;2022-12-18T00:08:41;32.60;;;12.20;;
76552;SDS011;65395;53.168;18.156;2022-12-18T00:11:10;32.20;;;11.70;;
76552;SDS011;65395;53.168;18.156;2022-12-18T00:13:39;37.30;;;11.30;;
76552;SDS011;65395;53.168;18.156;2022-12-18T00:16:07;62.90;;;15.60;;
76552;SDS011;65395;53.168;18.156;2022-12-18T00:18:37;56.80;;;16.10;;
76552;SDS011;65395;53.168;18.156;2022-12-18T00:21:05;43.70;;;13.50;;
76552;SDS011;65395;53.168;18.156;2022-12-18T00:23:34;30.80;;;12.70;;
76552;SDS011;65395;53.168;18.156;2022-12-18T00:26:02;40.60;;;13.30;;
76552;SDS011;65395;53.168;18.156;2022-12-18T00:28:32;31.20;;;10.80;;
76552;SDS011;65395;53.168;18.156;2022-12-18T00:31:01;37.80;;;12.00;;
76552;SDS011;65395;53.168;18.156;2022-12-18T00:33:29;36.30;;;12.90;;
76552;SDS011;65395;53.168;18.156;2022-12-18T00:38:36;33.40;;;11.40;;
76552;SDS011;65395;53.168;18.156;2022-12-18T00:41:03;39.00;;;12.60;;
76552;SDS011;65395;53.168;18.156;2022-12-18T00:43:31;42.50;;;13.10;;
76552;SDS011;65395;53.168;18.156;2022-12-18T00:45:58;33.60;;;12.40;;
76552;SDS011;65395;53.168;18.156;2022-12-18T00:48:25;41.60;;;11.80;;
76552;SDS011;65395;53.168;18.156;2022-12-18T00:50:52;36.70;;;12.30;;
76552;SDS011;65395;53.168;18.156;2022-12-18T00:53:19;76.00;;;18.30;;
76552;SDS011;65395;53.168;18.156;2022-12-18T00:55:46;74.20;;;19.20;;
76552;SDS011;65395;53.168;18.156;2022-12-18T00:58:14;52.00;;;15.50;;
76552;SDS011;65395;53.168;18.156;2022-12-18T01:00:42;37.00;;;12.60;;
76552;SDS011;65395;53.168;18.156;2022-12-18T01:03:12;35.40;;;12.50;;
76552;SDS011;65395;53.168;18.156;2022-12-18T01:05:40;42.60;;;12.70;;
76552;SDS011;65395;53.168;18.156;2022-12-18T01:08:07;42.30;;;13.10;;
76552;SDS011;65395;53.168;18.156;2022-12-18T01:10:35;48.40;;;15.10;;
76552;SDS011;65395;53.168;18.156;2022-12-18T01:13:01;47.60;;;14.80;;
76552;SDS011;65395;53.168;18.156;2022-12-18T01:15:28;49.30;;;15.60;;
76552;SDS011;65395;53.168;18.156;2022-12-18T01:17:55;57.20;;;17.80;;
76552;SDS011;65395;53.168;18.156;2022-12-18T01:20:21;55.30;;;15.70;;
76552;SDS011;65395;53.168;18.156;2022-12-18T01:22:48;58.50;;;17.40;;
76552;SDS011;65395;53.168;18.156;2022-12-18T01:25:15;62.90;;;17.40;;
76552;SDS011;65395;53.168;18.156;2022-12-18T01:27:43;104.50;;;24.10;;
76552;SDS011;65395;53.168;18.156;2022-12-18T01:30:09;105.40;;;24.50;;
76552;SDS011;65395;53.168;18.156;2022-12-18T01:32:37;78.40;;;21.00;;
76552;SDS011;65395;53.168;18.156;2022-12-18T01:35:03;55.50;;;17.30;;
76552;SDS011;65395;53.168;18.156;2022-12-18T01:37:31;55.20;;;17.90;;
76552;SDS011;65395;53.168;18.156;2022-12-18T01:39:58;59.00;;;18.70;;
76552;SDS011;65395;53.168;18.156;2022-12-18T01:42:25;58.70;;;18.10;;
76552;SDS011;65395;53.168;18.156;2022-12-18T01:47:34;56.50;;;17.00;;
76552;SDS011;65395;53.168;18.156;2022-12-18T01:50:12;57.70;;;18.90;;
76552;SDS011;65395;53.168;18.156;2022-12-18T01:52:42;57.80;;;16.50;;
76552;SDS011;65395;53.168;18.156;2022-12-18T01:55:13;86.10;;;21.50;;
76552;SDS011;65395;53.168;18.156;2022-12-18T01:57:42;93.90;;;22.50;;
76552;SDS011;65395;53.168;18.156;2022-12-18T02:00:11;72.70;;;20.50;;
76552;SDS011;65395;53.168;18.156;2022-12-18T02:02:43;51.10;;;15.90;;
76552;SDS011;65395;53.168;18.156;2022-12-18T02:05:15;50.50;;;17.60;;
76552;SDS011;65395;53.168;18.156;2022-12-18T02:07:55;52.00;;;16.50;;
76552;SDS011;65395;53.168;18.156;2022-12-18T02:10:41;49.80;;;15.80;;
76552;SDS011;65395;53.168;18.156;2022-12-18T02:16:29;52.20;;;15.50;;
76552;SDS011;65395;53.168;18.156;2022-12-18T02:19:15;54.80;;;17.00;;
76552;SDS011;65395;53.168;18.156;2022-12-18T02:25:05;54.10;;;17.00;;
76552;SDS011;65395;53.168;18.156;2022-12-18T02:27:47;50.00;;;15.20;;
76552;SDS011;65395;53.168;18.156;2022-12-18T02:30:17;50.30;;;15.80;;
76552;SDS011;65395;53.168;18.156;2022-12-18T02:32:46;60.50;;;16.40;;
76552;SDS011;65395;53.168;18.156;2022-12-18T02:35:19;115.40;;;23.10;;
76552;SDS011;65395;53.168;18.156;2022-12-18T02:37:54;108.10;;;23.50;;
76552;SDS011;65395;53.168;18.156;2022-12-18T02:40:22;74.90;;;20.80;;
76552;SDS011;65395;53.168;18.156;2022-12-18T02:42:52;50.10;;;15.80;;
76552;SDS011;65395;53.168;18.156;2022-12-18T02:45:19;50.40;;;16.10;;
76552;SDS011;65395;53.168;18.156;2022-12-18T02:47:52;53.90;;;15.60;;
76552;SDS011;65395;53.168;18.156;2022-12-18T02:50:26;51.30;;;15.90;;
76552;SDS011;65395;53.168;18.156;2022-12-18T03:04:43;48.40;;;14.80;;
76552;SDS011;65395;53.168;18.156;2022-12-18T03:07:23;47.20;;;14.20;;
76552;SDS011;65395;53.168;18.156;2022-12-18T03:10:00;56.30;;;15.50;;
76552;SDS011;65395;53.168;18.156;2022-12-18T03:12:29;82.60;;;19.30;;
76552;SDS011;65395;53.168;18.156;2022-12-18T03:15:03;89.60;;;19.70;;
76552;SDS011;65395;53.168;18.156;2022-12-18T03:17:37;56.00;;;16.10;;
76552;SDS011;65395;53.168;18.156;2022-12-18T03:20:12;36.50;;;12.30;;
76552;SDS011;65395;53.168;18.156;2022-12-18T03:22:44;40.70;;;12.70;;
76552;SDS011;65395;53.168;18.156;2022-12-18T03:25:15;36.50;;;12.20;;
76552;SDS011;65395;53.168;18.156;2022-12-18T03:27:46;41.30;;;12.70;;
76552;SDS011;65395;53.168;18.156;2022-12-18T03:30:16;40.00;;;12.80;;
76552;SDS011;65395;53.168;18.156;2022-12-18T03:32:47;35.40;;;11.20;;
76552;SDS011;65395;53.168;18.156;2022-12-18T03:35:24;36.30;;;11.90;;
76552;SDS011;65395;53.168;18.156;2022-12-18T03:37:56;43.30;;;12.30;;
76552;SDS011;65395;53.168;18.156;2022-12-18T03:40:24;40.40;;;12.00;;
76552;SDS011;65395;53.168;18.156;2022-12-18T03:43:03;45.10;;;14.40;;
76552;SDS011;65395;53.168;18.156;2022-12-18T03:45:38;48.70;;;12.90;;
76552;SDS011;65395;53.168;18.156;2022-12-18T03:48:16;82.50;;;17.60;;
76552;SDS011;65395;53.168;18.156;2022-12-18T03:50:55;65.60;;;15.80;;
76552;SDS011;65395;53.168;18.156;2022-12-18T03:53:39;49.70;;;14.80;;
76552;SDS011;65395;53.168;18.156;2022-12-18T03:56:18;39.60;;;12.90;;
76552;SDS011;65395;53.168;18.156;2022-12-18T03:58:49;37.40;;;12.30;;
76552;SDS011;65395;53.168;18.156;2022-12-18T04:01:23;35.30;;;11.60;;
76552;SDS011;65395;53.168;18.156;2022-12-18T04:03:55;37.30;;;12.60;;
76552;SDS011;65395;53.168;18.156;2022-12-18T04:06:24;37.30;;;12.20;;
76552;SDS011;65395;53.168;18.156;2022-12-18T04:08:52;39.70;;;13.50;;
76552;SDS011;65395;53.168;18.156;2022-12-18T04:11:21;35.60;;;12.10;;
76552;SDS011;65395;53.168;18.156;2022-12-18T04:13:48;34.20;;;11.80;;
76552;SDS011;65395;53.168;18.156;2022-12-18T04:16:19;35.00;;;10.80;;
76552;SDS011;65395;53.168;18.156;2022-12-18T04:18:46;31.20;;;10.40;;
76552;SDS011;65395;53.168;18.156;2022-12-18T04:21:13;32.10;;;11.20;;
76552;SDS011;65395;53.168;18.156;2022-12-18T04:23:40;32.00;;;10.80;;
76552;SDS011;65395;53.168;18.156;2022-12-18T04:26:07;34.10;;;10.10;;
76552;SDS011;65395;53.168;18.156;2022-12-18T04:28:44;69.50;;;15.50;;
76552;SDS011;65395;53.168;18.156;2022-12-18T04:31:12;64.90;;;15.30;;
76552;SDS011;65395;53.168;18.156;2022-12-18T04:33:39;40.70;;;11.80;;
76552;SDS011;65395;53.168;18.156;2022-12-18T04:36:06;30.20;;;10.10;;
76552;SDS011;65395;53.168;18.156;2022-12-18T04:38:34;30.90;;;10.60;;
76552;SDS011;65395;53.168;18.156;2022-12-18T04:41:06;32.70;;;10.00;;
76552;SDS011;65395;53.168;18.156;2022-12-18T04:43:33;28.10;;;10.30;;
76552;SDS011;65395;53.168;18.156;2022-12-18T04:46:03;32.00;;;10.00;;
76552;SDS011;65395;53.168;18.156;2022-12-18T04:48:32;28.90;;;9.60;;
76552;SDS011;65395;53.168;18.156;2022-12-18T04:50:59;29.50;;;10.10;;
76552;SDS011;65395;53.168;18.156;2022-12-18T04:53:25;28.60;;;9.30;;
76552;SDS011;65395;53.168;18.156;2022-12-18T04:58:31;31.00;;;10.60;;
76552;SDS011;65395;53.168;18.156;2022-12-18T05:00:58;30.00;;;10.80;;
76552;SDS011;65395;53.168;18.156;2022-12-18T05:03:26;30.60;;;10.40;;
76552;SDS011;65395;53.168;18.156;2022-12-18T05:05:53;31.30;;;10.10;;
76552;SDS011;65395;53.168;18.156;2022-12-18T05:08:20;53.10;;;14.00;;
76552;SDS011;65395;53.168;18.156;2022-12-18T05:10:47;50.70;;;13.40;;
76552;SDS011;65395;53.168;18.156;2022-12-18T05:13:14;41.50;;;11.40;;
76552;SDS011;65395;53.168;18.156;2022-12-18T05:15:40;27.20;;;9.50;;
76552;SDS011;65395;53.168;18.156;2022-12-18T05:18:08;27.70;;;9.80;;
76552;SDS011;65395;53.168;18.156;2022-12-18T05:20:35;38.70;;;10.30;;
76552;SDS011;65395;53.168;18.156;2022-12-18T05:23:01;29.30;;;8.90;;
76552;SDS011;65395;53.168;18.156;2022-12-18T05:25:28;31.30;;;10.20;;
76552;SDS011;65395;53.168;18.156;2022-12-18T05:27:55;32.10;;;10.70;;
76552;SDS011;65395;53.168;18.156;2022-12-18T05:30:22;36.20;;;10.30;;
76552;SDS011;65395;53.168;18.156;2022-12-18T05:32:48;30.80;;;9.80;;
76552;SDS011;65395;53.168;18.156;2022-12-18T05:35:15;38.30;;;11.20;;
76552;SDS011;65395;53.168;18.156;2022-12-18T05:37:42;31.20;;;10.90;;
76552;SDS011;65395;53.168;18.156;2022-12-18T05:40:09;31.50;;;10.20;;
76552;SDS011;65395;53.168;18.156;2022-12-18T05:42:36;31.70;;;10.90;;
76552;SDS011;65395;53.168;18.156;2022-12-18T05:45:03;33.60;;;9.60;;
76552;SDS011;65395;53.168;18.156;2022-12-18T05:47:31;67.50;;;15.80;;
76552;SDS011;65395;53.168;18.156;2022-12-18T05:49:57;74.80;;;19.60;;
76552;SDS011;65395;53.168;18.156;2022-12-18T05:52:24;73.90;;;19.60;;
76552;SDS011;65395;53.168;18.156;2022-12-18T05:54:51;64.30;;;17.00;;
76552;SDS011;65395;53.168;18.156;2022-12-18T05:57:18;32.10;;;11.20;;
76552;SDS011;65395;53.168;18.156;2022-12-18T05:59:45;35.40;;;11.10;;
76552;SDS011;65395;53.168;18.156;2022-12-18T06:02:11;35.40;;;10.90;;
76552;SDS011;65395;53.168;18.156;2022-12-18T06:04:38;31.40;;;10.80;;
76552;SDS011;65395;53.168;18.156;2022-12-18T06:07:05;37.30;;;10.90;;
76552;SDS011;65395;53.168;18.156;2022-12-18T06:09:31;36.30;;;11.00;;
76552;SDS011;65395;53.168;18.156;2022-12-18T06:11:58;38.70;;;12.30;;
76552;SDS011;65395;53.168;18.156;2022-12-18T06:14:25;38.10;;;12.80;;
76552;SDS011;65395;53.168;18.156;2022-12-18T06:16:52;36.00;;;11.70;;
76552;SDS011;65395;53.168;18.156;2022-12-18T06:19:19;34.10;;;11.70;;
76552;SDS011;65395;53.168;18.156;2022-12-18T06:21:45;34.60;;;11.10;;
76552;SDS011;65395;53.168;18.156;2022-12-18T06:24:13;38.20;;;12.20;;
76552;SDS011;65395;53.168;18.156;2022-12-18T06:26:39;42.30;;;12.60;;
76552;SDS011;65395;53.168;18.156;2022-12-18T06:29:06;43.60;;;12.90;;
76552;SDS011;65395;53.168;18.156;2022-12-18T06:31:33;87.90;;;19.70;;
76552;SDS011;65395;53.168;18.156;2022-12-18T06:34:01;107.30;;;22.20;;
76552;SDS011;65395;53.168;18.156;2022-12-18T06:36:29;79.50;;;21.90;;
76552;SDS011;65395;53.168;18.156;2022-12-18T06:38:56;34.00;;;11.70;;
76552;SDS011;65395;53.168;18.156;2022-12-18T06:41:23;36.90;;;11.80;;
76552;SDS011;65395;53.168;18.156;2022-12-18T06:43:50;41.40;;;12.50;;
76552;SDS011;65395;53.168;18.156;2022-12-18T06:46:17;36.00;;;11.50;;
76552;SDS011;65395;53.168;18.156;2022-12-18T06:48:46;37.80;;;11.80;;
76552;SDS011;65395;53.168;18.156;2022-12-18T06:51:15;47.50;;;13.60;;
76552;SDS011;65395;53.168;18.156;2022-12-18T06:53:43;42.40;;;12.80;;
76552;SDS011;65395;53.168;18.156;2022-12-18T06:56:10;47.20;;;13.40;;
76552;SDS011;65395;53.168;18.156;2022-12-18T06:58:37;44.90;;;13.60;;
76552;SDS011;65395;53.168;18.156;2022-12-18T07:01:06;46.90;;;14.40;;
76552;SDS011;65395;53.168;18.156;2022-12-18T07:03:35;43.60;;;14.10;;
76552;SDS011;65395;53.168;18.156;2022-12-18T07:06:02;47.90;;;14.70;;
76552;SDS011;65395;53.168;18.156;2022-12-18T07:08:30;41.80;;;12.80;;
76552;SDS011;65395;53.168;18.156;2022-12-18T07:10:57;56.20;;;15.70;;
76552;SDS011;65395;53.168;18.156;2022-12-18T07:13:24;113.70;;;23.90;;
76552;SDS011;65395;53.168;18.156;2022-12-18T07:15:51;130.30;;;27.70;;
76552;SDS011;65395;53.168;18.156;2022-12-18T07:18:18;117.00;;;27.10;;
76552;SDS011;65395;53.168;18.156;2022-12-18T07:20:44;74.60;;;20.30;;
76552;SDS011;65395;53.168;18.156;2022-12-18T07:23:11;40.10;;;12.20;;
76552;SDS011;65395;53.168;18.156;2022-12-18T07:25:38;43.40;;;13.30;;
76552;SDS011;65395;53.168;18.156;2022-12-18T07:28:05;40.00;;;12.40;;
76552;SDS011;65395;53.168;18.156;2022-12-18T07:30:32;41.30;;;13.50;;
76552;SDS011;65395;53.168;18.156;2022-12-18T07:32:59;42.20;;;13.90;;
76552;SDS011;65395;53.168;18.156;2022-12-18T07:35:26;42.60;;;14.10;;
76552;SDS011;65395;53.168;18.156;2022-12-18T07:37:53;41.20;;;13.10;;
76552;SDS011;65395;53.168;18.156;2022-12-18T07:40:19;46.40;;;14.10;;
76552;SDS011;65395;53.168;18.156;2022-12-18T07:42:46;43.20;;;13.40;;
76552;SDS011;65395;53.168;18.156;2022-12-18T07:45:13;48.00;;;13.70;;
76552;SDS011;65395;53.168;18.156;2022-12-18T07:47:40;37.20;;;12.60;;
76552;SDS011;65395;53.168;18.156;2022-12-18T07:50:07;42.40;;;13.50;;
76552;SDS011;65395;53.168;18.156;2022-12-18T07:52:34;47.80;;;14.00;;
76552;SDS011;65395;53.168;18.156;2022-12-18T07:55:01;99.40;;;19.00;;
76552;SDS011;65395;53.168;18.156;2022-12-18T07:57:28;105.40;;;21.10;;
76552;SDS011;65395;53.168;18.156;2022-12-18T07:59:55;58.30;;;15.90;;
76552;SDS011;65395;53.168;18.156;2022-12-18T08:02:21;41.90;;;12.10;;
76552;SDS011;65395;53.168;18.156;2022-12-18T08:04:48;43.90;;;14.20;;
76552;SDS011;65395;53.168;18.156;2022-12-18T08:07:15;48.40;;;13.80;;
76552;SDS011;65395;53.168;18.156;2022-12-18T08:09:42;43.00;;;13.10;;
76552;SDS011;65395;53.168;18.156;2022-12-18T08:12:08;45.60;;;13.00;;
76552;SDS011;65395;53.168;18.156;2022-12-18T08:14:35;40.10;;;13.20;;
76552;SDS011;65395;53.168;18.156;2022-12-18T08:17:01;47.00;;;14.80;;
76552;SDS011;65395;53.168;18.156;2022-12-18T08:19:28;41.60;;;13.40;;
76552;SDS011;65395;53.168;18.156;2022-12-18T08:21:55;42.50;;;12.90;;
76552;SDS011;65395;53.168;18.156;2022-12-18T08:24:21;41.20;;;12.60;;
76552;SDS011;65395;53.168;18.156;2022-12-18T08:26:48;44.50;;;13.80;;
76552;SDS011;65395;53.168;18.156;2022-12-18T08:29:15;46.30;;;12.50;;
76552;SDS011;65395;53.168;18.156;2022-12-18T08:31:41;73.50;;;17.80;;
76552;SDS011;65395;53.168;18.156;2022-12-18T08:34:08;93.50;;;21.70;;
76552;SDS011;65395;53.168;18.156;2022-12-18T08:36:35;50.20;;;16.10;;
76552;SDS011;65395;53.168;18.156;2022-12-18T08:39:02;39.70;;;12.10;;
76552;SDS011;65395;53.168;18.156;2022-12-18T08:41:29;43.10;;;13.90;;
76552;SDS011;65395;53.168;18.156;2022-12-18T08:43:55;43.80;;;14.00;;
76552;SDS011;65395;53.168;18.156;2022-12-18T08:46:34;41.30;;;14.00;;
76552;SDS011;65395;53.168;18.156;2022-12-18T08:49:03;42.50;;;13.60;;
76552;SDS011;65395;53.168;18.156;2022-12-18T08:51:31;39.20;;;13.20;;
76552;SDS011;65395;53.168;18.156;2022-12-18T08:53:59;43.60;;;14.30;;
76552;SDS011;65395;53.168;18.156;2022-12-18T08:56:25;41.30;;;14.10;;
76552;SDS011;65395;53.168;18.156;2022-12-18T08:58:52;41.30;;;13.90;;
76552;SDS011;65395;53.168;18.156;2022-12-18T09:01:20;42.20;;;14.20;;
76552;SDS011;65395;53.168;18.156;2022-12-18T09:03:48;52.50;;;14.50;;
76552;SDS011;65395;53.168;18.156;2022-12-18T09:06:16;78.30;;;17.70;;
76552;SDS011;65395;53.168;18.156;2022-12-18T09:08:44;82.80;;;19.70;;
76552;SDS011;65395;53.168;18.156;2022-12-18T09:11:13;55.20;;;16.20;;
76552;SDS011;65395;53.168;18.156;2022-12-18T09:13:45;39.90;;;13.20;;
76552;SDS011;65395;53.168;18.156;2022-12-18T09:16:11;50.50;;;14.60;;
76552;SDS011;65395;53.168;18.156;2022-12-18T09:18:38;39.90;;;14.40;;
76552;SDS011;65395;53.168;18.156;2022-12-18T09:21:09;44.00;;;13.50;;
76552;SDS011;65395;53.168;18.156;2022-12-18T09:23:37;45.40;;;13.80;;
76552;SDS011;65395;53.168;18.156;2022-12-18T09:26:04;43.60;;;13.70;;
76552;SDS011;65395;53.168;18.156;2022-12-18T09:28:32;44.50;;;15.50;;
76552;SDS011;65395;53.168;18.156;2022-12-18T09:30:58;39.40;;;13.60;;
76552;SDS011;65395;53.168;18.156;2022-12-18T09:33:29;41.50;;;14.10;;
76552;SDS011;65395;53.168;18.156;2022-12-18T09:35:56;39.30;;;13.00;;
76552;SDS011;65395;53.168;18.156;2022-12-18T09:38:23;36.60;;;11.40;;
76552;SDS011;65395;53.168;18.156;2022-12-18T09:40:53;35.30;;;11.60;;
76552;SDS011;65395;53.168;18.156;2022-12-18T09:43:28;41.50;;;13.60;;
76552;SDS011;65395;53.168;18.156;2022-12-18T09:46:03;45.10;;;14.40;;
76552;SDS011;65395;53.168;18.156;2022-12-18T09:48:35;70.70;;;16.80;;
76552;SDS011;65395;53.168;18.156;2022-12-18T09:51:10;72.60;;;18.20;;
76552;SDS011;65395;53.168;18.156;2022-12-18T09:53:42;41.90;;;14.00;;
76552;SDS011;65395;53.168;18.156;2022-12-18T09:56:16;32.50;;;11.80;;
76552;SDS011;65395;53.168;18.156;2022-12-18T09:58:55;38.30;;;13.30;;
76552;SDS011;65395;53.168;18.156;2022-12-18T10:01:25;35.90;;;12.10;;
76552;SDS011;65395;53.168;18.156;2022-12-18T10:03:53;39.10;;;12.50;;
76552;SDS011;65395;53.168;18.156;2022-12-18T10:09:17;35.30;;;11.80;;
76552;SDS011;65395;53.168;18.156;2022-12-18T10:14:41;32.60;;;11.40;;
76552;SDS011;65395;53.168;18.156;2022-12-18T10:17:26;35.40;;;11.90;;
76552;SDS011;65395;53.168;18.156;2022-12-18T10:20:05;37.80;;;12.90;;
76552;SDS011;65395;53.168;18.156;2022-12-18T10:22:49;33.80;;;13.00;;
76552;SDS011;65395;53.168;18.156;2022-12-18T10:25:27;39.30;;;13.30;;
76552;SDS011;65395;53.168;18.156;2022-12-18T10:28:11;33.00;;;11.70;;
76552;SDS011;65395;53.168;18.156;2022-12-18T10:30:41;35.10;;;13.10;;
76552;SDS011;65395;53.168;18.156;2022-12-18T10:33:17;36.40;;;11.20;;
76552;SDS011;65395;53.168;18.156;2022-12-18T10:35:48;47.80;;;14.90;;
76552;SDS011;65395;53.168;18.156;2022-12-18T10:38:22;39.00;;;13.60;;
76552;SDS011;65395;53.168;18.156;2022-12-18T10:40:53;34.80;;;11.90;;
76552;SDS011;65395;53.168;18.156;2022-12-18T10:43:24;31.80;;;12.30;;
76552;SDS011;65395;53.168;18.156;2022-12-18T10:48:49;36.60;;;11.70;;
76552;SDS011;65395;53.168;18.156;2022-12-18T10:54:01;35.20;;;12.00;;
76552;SDS011;65395;53.168;18.156;2022-12-18T10:56:32;33.20;;;12.30;;
76552;SDS011;65395;53.168;18.156;2022-12-18T11:01:47;28.70;;;10.70;;
76552;SDS011;65395;53.168;18.156;2022-12-18T11:04:18;36.60;;;12.20;;
76552;SDS011;65395;53.168;18.156;2022-12-18T11:06:56;32.90;;;10.70;;
76552;SDS011;65395;53.168;18.156;2022-12-18T11:09:26;31.20;;;11.40;;
76552;SDS011;65395;53.168;18.156;2022-12-18T11:11:56;34.20;;;10.60;;
76552;SDS011;65395;53.168;18.156;2022-12-18T11:14:33;34.30;;;12.00;;
76552;SDS011;65395;53.168;18.156;2022-12-18T11:19:52;36.50;;;10.80;;
76552;SDS011;65395;53.168;18.156;2022-12-18T11:22:21;44.40;;;15.30;;
76552;SDS011;65395;53.168;18.156;2022-12-18T11:27:32;36.40;;;12.20;;
76552;SDS011;65395;53.168;18.156;2022-12-18T11:32:49;35.60;;;11.80;;
76552;SDS011;65395;53.168;18.156;2022-12-18T11:38:23;32.40;;;11.50;;
76552;SDS011;65395;53.168;18.156;2022-12-18T11:40:55;34.00;;;11.50;;
76552;SDS011;65395;53.168;18.156;2022-12-18T11:46:07;39.60;;;12.50;;
76552;SDS011;65395;53.168;18.156;2022-12-18T11:48:43;38.40;;;12.00;;
76552;SDS011;65395;53.168;18.156;2022-12-18T11:51:27;37.00;;;12.20;;
76552;SDS011;65395;53.168;18.156;2022-12-18T11:53:58;41.00;;;14.00;;
76552;SDS011;65395;53.168;18.156;2022-12-18T11:56:31;45.20;;;13.90;;
76552;SDS011;65395;53.168;18.156;2022-12-18T11:59:07;47.90;;;15.60;;
76552;SDS011;65395;53.168;18.156;2022-12-18T12:04:46;41.40;;;14.00;;
76552;SDS011;65395;53.168;18.156;2022-12-18T12:13:09;58.20;;;16.10;;
76552;SDS011;65395;53.168;18.156;2022-12-18T12:21:23;45.90;;;15.30;;
76552;SDS011;65395;53.168;18.156;2022-12-18T12:26:52;50.80;;;16.30;;
76552;SDS011;65395;53.168;18.156;2022-12-18T12:29:37;54.50;;;17.00;;
76552;SDS011;65395;53.168;18.156;2022-12-18T12:32:33;54.10;;;17.10;;
76552;SDS011;65395;53.168;18.156;2022-12-18T12:40:45;55.00;;;17.10;;
76552;SDS011;65395;53.168;18.156;2022-12-18T12:43:27;62.30;;;17.70;;
76552;SDS011;65395;53.168;18.156;2022-12-18T12:46:09;55.60;;;17.80;;
76552;SDS011;65395;53.168;18.156;2022-12-18T12:48:43;60.30;;;18.40;;
76552;SDS011;65395;53.168;18.156;2022-12-18T12:51:16;61.60;;;19.10;;
76552;SDS011;65395;53.168;18.156;2022-12-18T12:53:48;55.40;;;17.30;;
76552;SDS011;65395;53.168;18.156;2022-12-18T12:56:16;59.80;;;16.90;;
76552;SDS011;65395;53.168;18.156;2022-12-18T12:58:46;54.20;;;15.10;;
76552;SDS011;65395;53.168;18.156;2022-12-18T13:04:12;99.40;;;22.50;;
76552;SDS011;65395;53.168;18.156;2022-12-18T13:09:50;47.60;;;15.00;;
76552;SDS011;65395;53.168;18.156;2022-12-18T13:12:33;55.00;;;16.20;;
76552;SDS011;65395;53.168;18.156;2022-12-18T13:15:19;51.10;;;17.00;;
76552;SDS011;65395;53.168;18.156;2022-12-18T13:18:01;56.90;;;15.80;;
76552;SDS011;65395;53.168;18.156;2022-12-18T13:20:32;47.90;;;15.40;;
76552;SDS011;65395;53.168;18.156;2022-12-18T13:23:01;55.90;;;17.20;;
76552;SDS011;65395;53.168;18.156;2022-12-18T13:25:41;58.70;;;16.50;;
76552;SDS011;65395;53.168;18.156;2022-12-18T13:28:13;55.40;;;18.60;;
76552;SDS011;65395;53.168;18.156;2022-12-18T13:30:43;55.40;;;16.10;;
76552;SDS011;65395;53.168;18.156;2022-12-18T13:38:43;59.80;;;16.50;;
76552;SDS011;65395;53.168;18.156;2022-12-18T13:43:51;63.30;;;18.30;;
76552;SDS011;65395;53.168;18.156;2022-12-18T13:46:22;66.60;;;18.80;;
76552;SDS011;65395;53.168;18.156;2022-12-18T13:51:58;102.80;;;22.50;;
76552;SDS011;65395;53.168;18.156;2022-12-18T13:54:34;72.30;;;20.60;;
76552;SDS011;65395;53.168;18.156;2022-12-18T13:57:22;56.20;;;16.00;;
76552;SDS011;65395;53.168;18.156;2022-12-18T13:59:52;57.40;;;15.90;;
76552;SDS011;65395;53.168;18.156;2022-12-18T14:02:21;56.90;;;17.00;;
76552;SDS011;65395;53.168;18.156;2022-12-18T14:04:51;56.60;;;16.80;;
76552;SDS011;65395;53.168;18.156;2022-12-18T14:07:20;71.20;;;18.30;;
76552;SDS011;65395;53.168;18.156;2022-12-18T14:09:54;66.90;;;19.70;;
76552;SDS011;65395;53.168;18.156;2022-12-18T14:12:24;55.10;;;15.20;;
76552;SDS011;65395;53.168;18.156;2022-12-18T14:15:05;58.70;;;17.30;;
76552;SDS011;65395;53.168;18.156;2022-12-18T14:17:40;56.90;;;15.70;;
76552;SDS011;65395;53.168;18.156;2022-12-18T14:20:13;58.50;;;15.20;;
76552;SDS011;65395;53.168;18.156;2022-12-18T14:22:47;52.00;;;14.40;;
76552;SDS011;65395;53.168;18.156;2022-12-18T14:25:20;55.50;;;16.20;;
76552;SDS011;65395;53.168;18.156;2022-12-18T14:27:51;64.20;;;15.40;;
76552;SDS011;65395;53.168;18.156;2022-12-18T14:30:30;96.50;;;21.30;;
76552;SDS011;65395;53.168;18.156;2022-12-18T14:33:09;74.20;;;18.60;;
76552;SDS011;65395;53.168;18.156;2022-12-18T14:35:42;60.60;;;16.90;;
76552;SDS011;65395;53.168;18.156;2022-12-18T14:38:21;52.70;;;13.60;;
76552;SDS011;65395;53.168;18.156;2022-12-18T14:43:32;60.90;;;16.70;;
76552;SDS011;65395;53.168;18.156;2022-12-18T14:46:01;53.40;;;16.60;;
76552;SDS011;65395;53.168;18.156;2022-12-18T14:48:35;60.50;;;15.70;;
76552;SDS011;65395;53.168;18.156;2022-12-18T14:51:06;62.80;;;16.10;;
76552;SDS011;65395;53.168;18.156;2022-12-18T14:53:44;64.10;;;16.70;;
76552;SDS011;65395;53.168;18.156;2022-12-18T14:56:18;61.30;;;15.00;;
76552;SDS011;65395;53.168;18.156;2022-12-18T14:58:49;62.80;;;16.90;;
76552;SDS011;65395;53.168;18.156;2022-12-18T15:01:21;55.50;;;17.00;;
76552;SDS011;65395;53.168;18.156;2022-12-18T15:03:50;60.20;;;16.20;;
76552;SDS011;65395;53.168;18.156;2022-12-18T15:08:58;68.40;;;18.00;;
76552;SDS011;65395;53.168;18.156;2022-12-18T15:11:44;131.10;;;24.60;;
76552;SDS011;65395;53.168;18.156;2022-12-18T15:16:53;108.70;;;22.80;;
76552;SDS011;65395;53.168;18.156;2022-12-18T15:19:21;61.70;;;17.20;;
76552;SDS011;65395;53.168;18.156;2022-12-18T15:21:52;61.70;;;17.40;;
76552;SDS011;65395;53.168;18.156;2022-12-18T15:24:22;70.60;;;18.90;;
76552;SDS011;65395;53.168;18.156;2022-12-18T15:26:53;75.00;;;18.70;;
76552;SDS011;65395;53.168;18.156;2022-12-18T15:29:23;66.80;;;18.40;;
76552;SDS011;65395;53.168;18.156;2022-12-18T15:34:30;68.80;;;18.50;;
76552;SDS011;65395;53.168;18.156;2022-12-18T15:36:58;63.90;;;17.30;;
76552;SDS011;65395;53.168;18.156;2022-12-18T15:39:25;62.90;;;17.70;;
76552;SDS011;65395;53.168;18.156;2022-12-18T15:41:52;65.40;;;17.70;;
76552;SDS011;65395;53.168;18.156;2022-12-18T15:44:29;51.50;;;13.80;;
76552;SDS011;65395;53.168;18.156;2022-12-18T15:46:56;55.80;;;16.00;;
76552;SDS011;65395;53.168;18.156;2022-12-18T15:49:23;59.20;;;16.80;;
76552;SDS011;65395;53.168;18.156;2022-12-18T15:51:53;64.70;;;16.70;;
76552;SDS011;65395;53.168;18.156;2022-12-18T15:54:22;72.50;;;15.90;;
76552;SDS011;65395;53.168;18.156;2022-12-18T15:57:10;125.30;;;22.40;;
76552;SDS011;65395;53.168;18.156;2022-12-18T15:59:50;110.60;;;23.10;;
76552;SDS011;65395;53.168;18.156;2022-12-18T16:02:20;76.60;;;20.20;;
76552;SDS011;65395;53.168;18.156;2022-12-18T16:04:49;59.20;;;15.90;;
76552;SDS011;65395;53.168;18.156;2022-12-18T16:07:18;61.40;;;17.40;;
76552;SDS011;65395;53.168;18.156;2022-12-18T16:09:48;59.10;;;16.30;;
76552;SDS011;65395;53.168;18.156;2022-12-18T16:12:18;63.10;;;16.50;;